createdAt,value
2019-03-23T00:01:47.410Z,99354.33
2019-03-23T00:04:15.617Z,99348.05
2019-03-23T00:06:43.836Z,99352.58
2019-03-23T00:09:12.047Z,99353.13
2019-03-23T00:11:40.616Z,99357.66
2019-03-23T00:14:09.404Z,99346.45
2019-03-23T00:16:38.088Z,99358.61
2019-03-23T00:19:06.291Z,99357.26
2019-03-23T00:21:34.846Z,99350.17
2019-03-23T00:24:03.295Z,99355.15
2019-03-23T00:26:31.508Z,99350.77
2019-03-23T00:28:59.981Z,99351.80
2019-03-23T00:31:28.209Z,99355.60
2019-03-23T00:33:56.421Z,99347.53
2019-03-23T00:36:24.641Z,99344.41
2019-03-23T00:38:52.860Z,99348.93
2019-03-23T00:41:21.083Z,99344.00
2019-03-23T00:43:49.353Z,99346.63
2019-03-23T00:46:17.614Z,99342.66
2019-03-23T00:48:45.827Z,99342.66
2019-03-23T00:51:14.057Z,99341.30
2019-03-23T00:53:42.266Z,99339.08
2019-03-23T00:56:10.495Z,99337.65
2019-03-23T00:58:38.703Z,99334.95
2019-03-23T01:01:06.934Z,99332.72
2019-03-23T01:03:35.142Z,99332.32
2019-03-23T01:06:03.353Z,99339.44
2019-03-23T01:08:31.564Z,99336.30
2019-03-23T01:10:59.778Z,99330.57
2019-03-23T01:13:28.333Z,99335.57
2019-03-23T01:15:56.821Z,99334.62
2019-03-23T01:18:25.039Z,99331.05
2019-03-23T01:20:53.252Z,99329.77
2019-03-23T01:23:21.465Z,99329.30
2019-03-23T01:25:49.670Z,99324.30
2019-03-23T01:28:17.886Z,99323.02
2019-03-23T01:30:46.376Z,99318.64
2019-03-23T01:33:14.694Z,99319.19
2019-03-23T01:35:42.942Z,99319.67
2019-03-23T01:38:11.159Z,99313.39
2019-03-23T01:40:39.372Z,99317.37
2019-03-23T01:43:07.586Z,99313.79
2019-03-23T01:45:35.795Z,99315.26
2019-03-23T01:48:04.301Z,99319.31
2019-03-23T01:50:32.505Z,99309.81
2019-03-23T01:53:01.058Z,99310.73
2019-03-23T01:55:29.733Z,99313.03
2019-03-23T01:57:57.940Z,99318.44
2019-03-23T02:00:26.218Z,99316.20
2019-03-23T02:02:54.429Z,99317.44
2019-03-23T02:05:22.649Z,99318.44
2019-03-23T02:07:50.858Z,99323.51
2019-03-23T02:10:19.072Z,99319.94
2019-03-23T02:12:47.585Z,99317.38
2019-03-23T02:15:16.062Z,99318.26
2019-03-23T02:17:44.369Z,99310.70
2019-03-23T02:20:13.616Z,99310.83
2019-03-23T02:22:41.840Z,99314.43
2019-03-23T02:25:10.057Z,99313.95
2019-03-23T02:27:38.560Z,99314.00
2019-03-23T02:30:09.546Z,99318.52
2019-03-23T02:32:37.740Z,99314.07
2019-03-23T02:35:07.586Z,99321.30
2019-03-23T02:37:36.211Z,99320.34
2019-03-23T02:40:06.393Z,99315.50
2019-03-23T02:42:34.873Z,99317.32
2019-03-23T02:45:03.655Z,99318.27
2019-03-23T02:47:32.143Z,99317.47
2019-03-23T02:50:00.500Z,99321.11
2019-03-23T02:52:29.106Z,99318.89
2019-03-23T02:54:57.319Z,99318.02
2019-03-23T02:57:25.541Z,99311.34
2019-03-23T02:59:53.746Z,99314.91
2019-03-23T03:02:22.248Z,99318.56
2019-03-23T03:04:50.513Z,99314.44
2019-03-23T03:07:18.731Z,99321.66
2019-03-23T03:09:46.929Z,99323.48
2019-03-23T03:12:15.152Z,99324.88
2019-03-23T03:14:43.441Z,99316.92
2019-03-23T03:17:11.660Z,99322.07
2019-03-23T03:19:39.879Z,99324.48
2019-03-23T03:22:08.092Z,99325.02
2019-03-23T03:24:36.303Z,99333.67
2019-03-23T03:27:04.867Z,99333.81
2019-03-23T03:29:33.344Z,99332.14
2019-03-23T03:32:01.565Z,99346.58
2019-03-23T03:34:29.860Z,99349.68
2019-03-23T03:36:58.074Z,99351.09
2019-03-23T03:39:26.324Z,99349.86
2019-03-23T03:41:54.497Z,99349.93
2019-03-23T03:44:22.708Z,99345.95
2019-03-23T03:46:50.920Z,99344.67
2019-03-23T03:49:19.447Z,99347.38
2019-03-23T03:51:49.307Z,99351.49
2019-03-23T03:54:17.517Z,99341.23
2019-03-23T03:56:45.721Z,99340.77
2019-03-23T03:59:13.929Z,99342.12
2019-03-23T04:01:42.194Z,99341.72
2019-03-23T04:04:10.443Z,99339.05
2019-03-23T04:06:38.637Z,99342.70
2019-03-23T04:09:06.921Z,99335.52
2019-03-23T04:11:35.132Z,99343.20
2019-03-23T04:14:03.347Z,99346.85
2019-03-23T04:16:31.918Z,99350.90
2019-03-23T04:19:00.394Z,99349.15
2019-03-23T04:21:28.609Z,99349.15
2019-03-23T04:23:56.810Z,99357.24
2019-03-23T04:26:25.063Z,99354.69
2019-03-23T04:28:53.229Z,99356.98
2019-03-23T04:31:21.432Z,99363.25
2019-03-23T04:33:49.655Z,99366.48
2019-03-23T04:36:17.953Z,99369.63
2019-03-23T04:38:46.497Z,99371.05
2019-03-23T04:41:14.706Z,99371.52
2019-03-23T04:43:42.922Z,99376.03
2019-03-23T04:46:11.134Z,99380.08
2019-03-23T04:48:39.605Z,99384.67
2019-03-23T04:51:08.092Z,99393.64
2019-03-23T04:53:36.299Z,99397.28
2019-03-23T04:56:04.845Z,99396.88
2019-03-23T04:58:33.052Z,99392.42
2019-03-23T05:01:01.256Z,99390.67
2019-03-23T05:03:29.471Z,99387.58
2019-03-23T05:05:57.676Z,99388.11
2019-03-23T05:08:33.358Z,99391.72
2019-03-23T05:10:55.829Z,99392.66
2019-03-23T05:13:24.309Z,99387.34
2019-03-23T05:15:52.515Z,99394.55
2019-03-23T05:18:20.725Z,99395.09
2019-03-23T05:20:49.236Z,99397.32
2019-03-23T05:23:17.723Z,99402.78
2019-03-23T05:25:45.927Z,99401.03
2019-03-23T05:28:14.160Z,99407.37
2019-03-23T05:30:42.383Z,99416.88
2019-03-23T05:33:10.584Z,99424.49
2019-03-23T05:35:39.100Z,99421.42
2019-03-23T05:38:07.318Z,99427.29
2019-03-23T05:40:35.523Z,99429.58
2019-03-23T05:43:03.737Z,99442.66
2019-03-23T05:45:31.948Z,99446.70
2019-03-23T05:48:00.162Z,99443.59
2019-03-23T05:50:28.374Z,99447.71
2019-03-23T05:52:56.926Z,99440.50
2019-03-23T05:55:25.421Z,99438.75
2019-03-23T05:57:53.891Z,99443.73
2019-03-23T06:00:22.090Z,99437.94
2019-03-23T06:02:50.300Z,99441.98
2019-03-23T06:05:18.500Z,99441.57
2019-03-23T06:07:46.715Z,99446.97
2019-03-23T06:10:15.270Z,99452.83
2019-03-23T06:12:43.494Z,99453.77
2019-03-23T06:15:11.696Z,99457.44
2019-03-23T06:17:39.921Z,99458.76
2019-03-23T06:20:09.077Z,99464.16
2019-03-23T06:22:37.296Z,99458.76
2019-03-23T06:25:06.440Z,99461.89
2019-03-23T06:27:34.668Z,99468.63
2019-03-23T06:30:03.222Z,99466.41
2019-03-23T06:32:31.704Z,99464.18
2019-03-23T06:34:59.909Z,99465.94
2019-03-23T06:37:28.111Z,99465.53
2019-03-23T06:39:56.629Z,99469.10
2019-03-23T06:42:24.842Z,99473.15
2019-03-23T06:44:53.388Z,99480.77
2019-03-23T06:47:21.607Z,99487.09
2019-03-23T06:49:49.803Z,99486.22
2019-03-23T06:52:18.316Z,99480.83
2019-03-23T06:54:46.798Z,99490.67
2019-03-23T06:57:15.094Z,99485.75
2019-03-23T06:59:43.398Z,99497.41
2019-03-23T07:02:12.056Z,99500.98
2019-03-23T07:04:40.513Z,99499.70
2019-03-23T07:07:08.717Z,99489.39
2019-03-23T07:09:38.570Z,99490.33
2019-03-23T07:12:06.775Z,99488.98
2019-03-23T07:14:34.986Z,99500.30
2019-03-23T07:17:03.190Z,99506.16
2019-03-23T07:19:31.462Z,99513.84
2019-03-23T07:21:59.664Z,99514.78
2019-03-23T07:24:28.156Z,99518.36
2019-03-23T07:26:56.382Z,99515.66
2019-03-23T07:29:25.138Z,99518.83
2019-03-23T07:31:53.424Z,99529.15
2019-03-23T07:34:21.763Z,99544.51
2019-03-23T07:36:50.027Z,99547.27
2019-03-23T07:39:26.692Z,99551.34
2019-03-23T07:41:48.180Z,99562.59
2019-03-23T07:44:16.719Z,99557.73
2019-03-23T07:46:45.205Z,99562.24
2019-03-23T07:49:13.438Z,99564.53
2019-03-23T07:51:42.022Z,99559.14
2019-03-23T07:54:10.188Z,99561.02
2019-03-23T07:56:38.646Z,99565.06
2019-03-23T07:59:06.933Z,99563.77
2019-03-23T08:01:37.113Z,99562.42
2019-03-23T08:04:05.705Z,99569.23
2019-03-23T08:06:33.917Z,99575.97
2019-03-23T08:09:02.147Z,99573.27
2019-03-23T08:11:30.351Z,99567.94
2019-03-23T08:13:58.568Z,99572.89
2019-03-23T08:16:26.774Z,99568.84
2019-03-23T08:18:55.070Z,99569.84
2019-03-23T08:21:23.275Z,99577.88
2019-03-23T08:23:51.801Z,99579.63
2019-03-23T08:26:20.012Z,99576.99
2019-03-23T08:28:48.223Z,99579.69
2019-03-23T08:31:16.437Z,99576.99
2019-03-23T08:33:44.656Z,99576.58
2019-03-23T08:36:12.870Z,99582.79
2019-03-23T08:38:41.176Z,99581.97
2019-03-23T08:41:09.384Z,99581.03
2019-03-23T08:43:37.924Z,99573.48
2019-03-23T08:46:06.132Z,99585.14
2019-03-23T08:48:34.345Z,99578.87
2019-03-23T08:51:02.553Z,99579.80
2019-03-23T08:53:30.764Z,99571.72
2019-03-23T08:55:58.994Z,99575.77
2019-03-23T08:58:29.012Z,99574.42
2019-03-23T09:00:58.174Z,99582.50
2019-03-23T09:03:26.670Z,99575.77
2019-03-23T09:05:54.988Z,99584.31
2019-03-23T09:08:23.200Z,99577.11
2019-03-23T09:10:51.703Z,99583.85
2019-03-23T09:13:19.911Z,99588.83
2019-03-23T09:15:48.153Z,99599.20
2019-03-23T09:18:16.363Z,99599.61
2019-03-23T09:20:44.583Z,99598.55
2019-03-23T09:23:13.079Z,99599.43
2019-03-23T09:25:41.309Z,99599.49
2019-03-23T09:28:09.534Z,99602.25
2019-03-23T09:30:37.752Z,99601.78
2019-03-23T09:33:05.960Z,99601.78
2019-03-23T09:35:34.184Z,99608.11
2019-03-23T09:38:02.754Z,99617.48
2019-03-23T09:40:31.671Z,99612.16
2019-03-23T09:42:59.869Z,99617.95
2019-03-23T09:45:28.098Z,99626.91
2019-03-23T09:47:56.305Z,99634.13
2019-03-23T09:50:24.527Z,99637.70
2019-03-23T09:52:53.321Z,99638.22
2019-03-23T09:55:21.543Z,99640.45
2019-03-23T09:57:49.790Z,99638.22
2019-03-23T10:00:18.018Z,99646.78
2019-03-23T10:02:46.222Z,99650.41
2019-03-23T10:05:14.700Z,99649.53
2019-03-23T10:07:42.908Z,99655.39
2019-03-23T10:10:21.359Z,99656.30
2019-03-23T10:12:41.123Z,99660.34
2019-03-23T10:15:09.349Z,99658.09
2019-03-23T10:17:37.573Z,99665.73
2019-03-23T10:20:08.087Z,99665.73
2019-03-23T10:22:36.627Z,99674.28
2019-03-23T10:25:06.335Z,99666.66
2019-03-23T10:27:34.810Z,99672.05
2019-03-23T10:30:03.699Z,99675.69
2019-03-23T10:32:31.919Z,99676.59
2019-03-23T10:35:00.423Z,99677.06
2019-03-23T10:37:28.657Z,99674.83
2019-03-23T10:39:57.093Z,99677.06
2019-03-23T10:42:25.300Z,99681.55
2019-03-23T10:44:53.505Z,99676.59
2019-03-23T10:47:21.766Z,99671.20
2019-03-23T10:49:50.239Z,99672.98
2019-03-23T10:52:18.902Z,99667.59
2019-03-23T10:54:47.155Z,99662.21
2019-03-23T10:57:15.374Z,99663.50
2019-03-23T10:59:43.939Z,99670.63
2019-03-23T11:02:12.155Z,99665.64
2019-03-23T11:04:40.369Z,99657.91
2019-03-23T11:07:08.575Z,99664.04
2019-03-23T11:09:36.792Z,99670.72
2019-03-23T11:12:04.998Z,99664.86
2019-03-23T11:14:33.220Z,99670.72
2019-03-23T11:17:01.429Z,99676.88
2019-03-23T11:19:29.639Z,99680.98
2019-03-23T11:21:57.848Z,99680.86
2019-03-23T11:24:26.058Z,99688.22
2019-03-23T11:26:54.569Z,99687.16
2019-03-23T11:29:22.786Z,99688.39
2019-03-23T11:31:51.329Z,99684.20
2019-03-23T11:34:19.635Z,99687.66
2019-03-23T11:36:47.850Z,99693.38
2019-03-23T11:39:16.072Z,99693.38
2019-03-23T11:41:44.637Z,99691.50
2019-03-23T11:44:12.846Z,99704.45
2019-03-23T11:46:41.094Z,99699.47
2019-03-23T11:49:09.674Z,99700.76
2019-03-23T11:51:37.905Z,99698.76
2019-03-23T11:54:06.428Z,99701.30
2019-03-23T11:56:34.652Z,99695.64
2019-03-23T11:59:02.864Z,99701.47
2019-03-23T12:01:31.089Z,99701.47
2019-03-23T12:03:59.624Z,99705.52
2019-03-23T12:06:27.847Z,99698.36
2019-03-23T12:08:56.060Z,99699.37
2019-03-23T12:11:24.378Z,99697.48
2019-03-23T12:13:52.590Z,99698.34
2019-03-23T12:16:21.109Z,99698.56
2019-03-23T12:18:49.326Z,99694.92
2019-03-23T12:21:17.535Z,99693.63
2019-03-23T12:23:45.741Z,99686.02
2019-03-23T12:26:13.947Z,99690.13
2019-03-23T12:28:42.485Z,99697.74
2019-03-23T12:31:10.781Z,99689.71
2019-03-23T12:33:38.998Z,99694.64
2019-03-23T12:36:08.075Z,99694.05
2019-03-23T12:38:36.290Z,99691.28
2019-03-23T12:41:14.366Z,99692.63
2019-03-23T12:43:34.945Z,99698.44
2019-03-23T12:46:03.156Z,99696.19
2019-03-23T12:48:31.370Z,99692.05
2019-03-23T12:50:59.578Z,99694.33
2019-03-23T12:53:27.796Z,99692.07
2019-03-23T12:55:56.006Z,99695.21
2019-03-23T12:58:24.304Z,99694.33
2019-03-23T13:00:52.584Z,99700.64
2019-03-23T13:03:20.802Z,99688.09
2019-03-23T13:05:49.008Z,99690.78
2019-03-23T13:08:17.225Z,99689.44
2019-03-23T13:10:45.428Z,99692.55
2019-03-23T13:13:13.907Z,99691.66
2019-03-23T13:15:42.361Z,99691.66
2019-03-23T13:18:10.787Z,99688.50
2019-03-23T13:20:38.992Z,99688.34
2019-03-23T13:23:07.360Z,99683.23
2019-03-23T13:25:40.299Z,99684.30
2019-03-23T13:28:13.252Z,99683.09
2019-03-23T13:30:41.520Z,99682.68
2019-03-23T13:33:09.740Z,99685.50
2019-03-23T13:35:38.227Z,99684.33
2019-03-23T13:38:06.448Z,99685.34
2019-03-23T13:40:34.655Z,99687.00
2019-03-23T13:43:03.683Z,99684.03
2019-03-23T13:45:31.960Z,99680.66
2019-03-23T13:48:00.180Z,99686.20
2019-03-23T13:50:31.572Z,99687.31
2019-03-23T13:52:59.794Z,99689.34
2019-03-23T13:55:30.787Z,99690.45
2019-03-23T13:58:13.264Z,99688.42
2019-03-23T14:00:41.645Z,99683.31
2019-03-23T14:03:10.031Z,99693.05
2019-03-23T14:05:38.527Z,99680.34
2019-03-23T14:08:06.749Z,99690.20
2019-03-23T14:10:35.290Z,99684.05
2019-03-23T14:13:03.506Z,99681.42
2019-03-23T14:15:31.716Z,99678.83
2019-03-23T14:18:00.315Z,99682.07
2019-03-23T14:20:28.793Z,99682.75
2019-03-23T14:23:02.658Z,99679.31
2019-03-23T14:25:27.218Z,99678.47
2019-03-23T14:27:55.438Z,99678.59
2019-03-23T14:30:23.963Z,99673.67
2019-03-23T14:32:52.172Z,99678.53
2019-03-23T14:35:20.378Z,99667.72
2019-03-23T14:37:48.883Z,99669.07
2019-03-23T14:40:17.201Z,99674.88
2019-03-23T14:42:45.734Z,99670.90
2019-03-23T14:45:14.329Z,99674.95
2019-03-23T14:47:42.544Z,99676.77
2019-03-23T14:50:11.091Z,99674.61
2019-03-23T14:52:39.293Z,99676.50
2019-03-23T14:55:07.509Z,99678.40
2019-03-23T14:57:35.717Z,99678.40
2019-03-23T15:00:09.200Z,99675.30
2019-03-23T15:02:37.677Z,99678.50
2019-03-23T15:05:07.251Z,99674.45
2019-03-23T15:07:35.452Z,99673.64
2019-03-23T15:10:05.973Z,99678.23
2019-03-23T15:12:34.475Z,99683.23
2019-03-23T15:15:02.702Z,99689.64
2019-03-23T15:17:30.903Z,99693.33
2019-03-23T15:19:59.125Z,99690.63
2019-03-23T15:22:27.676Z,99694.78
2019-03-23T15:24:55.897Z,99683.16
2019-03-23T15:27:24.109Z,99682.34
2019-03-23T15:29:52.335Z,99677.48
2019-03-23T15:32:20.782Z,99681.60
2019-03-23T15:34:49.001Z,99688.86
2019-03-23T15:37:17.208Z,99692.98
2019-03-23T15:39:45.428Z,99690.88
2019-03-23T15:42:13.633Z,99682.44
2019-03-23T15:44:42.163Z,99685.67
2019-03-23T15:47:10.368Z,99688.44
2019-03-23T15:49:38.636Z,99685.37
2019-03-23T15:52:06.843Z,99682.73
2019-03-23T15:54:36.080Z,99685.97
2019-03-23T15:57:04.290Z,99680.50
2019-03-23T15:59:32.519Z,99682.73
2019-03-23T16:02:01.009Z,99688.20
2019-03-23T16:04:29.495Z,99687.52
2019-03-23T16:06:57.803Z,99685.85
2019-03-23T16:09:26.350Z,99691.66
2019-03-23T16:11:54.551Z,99695.20
2019-03-23T16:14:23.107Z,99692.91
2019-03-23T16:16:51.314Z,99690.48
2019-03-23T16:19:19.520Z,99682.92
2019-03-23T16:21:47.770Z,99687.38
2019-03-23T16:24:15.982Z,99690.48
2019-03-23T16:26:44.214Z,99695.08
2019-03-23T16:29:12.490Z,99689.80
2019-03-23T16:31:40.707Z,99699.70
2019-03-23T16:34:09.215Z,99692.20
2019-03-23T16:36:42.361Z,99693.48
2019-03-23T16:39:10.577Z,99692.66
2019-03-23T16:41:39.270Z,99698.13
2019-03-23T16:44:07.948Z,99697.72
2019-03-23T16:46:36.157Z,99697.31
2019-03-23T16:49:04.361Z,99691.98
2019-03-23T16:51:32.872Z,99687.52
2019-03-23T16:54:01.258Z,99693.39
2019-03-23T16:56:29.553Z,99693.89
2019-03-23T16:58:57.992Z,99698.00
2019-03-23T17:01:27.176Z,99693.02
2019-03-23T17:03:55.450Z,99698.00
2019-03-23T17:06:27.599Z,99695.03
2019-03-23T17:08:55.800Z,99695.50
2019-03-23T17:11:24.011Z,99691.58
2019-03-23T17:13:52.216Z,99691.58
2019-03-23T17:16:20.617Z,99691.98
2019-03-23T17:18:48.843Z,99687.53
2019-03-23T17:21:17.054Z,99690.70
2019-03-23T17:23:45.588Z,99688.50
2019-03-23T17:26:13.803Z,99690.31
2019-03-23T17:28:42.349Z,99692.73
2019-03-23T17:31:10.565Z,99702.30
2019-03-23T17:33:38.776Z,99689.00
2019-03-23T17:36:07.275Z,99693.58
2019-03-23T17:38:35.481Z,99691.64
2019-03-23T17:41:03.978Z,99697.38
2019-03-23T17:43:32.189Z,99698.79
2019-03-23T17:46:00.405Z,99697.53
2019-03-23T17:48:28.959Z,99701.14
2019-03-23T17:50:57.170Z,99702.08
2019-03-23T17:53:25.393Z,99703.42
2019-03-23T17:55:53.612Z,99703.14
2019-03-23T17:58:21.823Z,99708.53
2019-03-23T18:00:50.341Z,99709.56
2019-03-23T18:03:18.785Z,99708.75
2019-03-23T18:05:47.002Z,99716.84
2019-03-23T18:08:15.216Z,99710.36
2019-03-23T18:10:43.448Z,99715.69
2019-03-23T18:13:16.597Z,99711.30
2019-03-23T18:15:41.604Z,99712.17
2019-03-23T18:18:09.810Z,99715.75
2019-03-23T18:20:38.491Z,99720.33
2019-03-23T18:23:06.705Z,99717.38
2019-03-23T18:25:35.244Z,99730.80
2019-03-23T18:28:03.481Z,99730.45
2019-03-23T18:30:39.952Z,99730.92
2019-03-23T18:33:08.497Z,99732.27
2019-03-23T18:35:36.706Z,99733.21
2019-03-23T18:38:05.230Z,99734.56
2019-03-23T18:40:33.765Z,99737.46
2019-03-23T18:43:02.301Z,99737.02
2019-03-23T18:45:30.508Z,99737.48
2019-03-23T18:47:58.731Z,99741.66
2019-03-23T18:50:26.935Z,99749.34
2019-03-23T18:52:55.503Z,99748.13
2019-03-23T18:55:23.707Z,99741.91
2019-03-23T18:57:52.260Z,99749.69
2019-03-23T19:00:35.855Z,99747.17
2019-03-23T19:03:05.073Z,99749.98
2019-03-23T19:05:33.287Z,99746.44
2019-03-23T19:08:01.851Z,99744.27
2019-03-23T19:10:30.325Z,99742.98
2019-03-23T19:12:58.821Z,99747.91
2019-03-23T19:15:27.052Z,99751.95
2019-03-23T19:17:55.316Z,99753.09
2019-03-23T19:20:23.547Z,99753.09
2019-03-23T19:22:51.767Z,99749.11
2019-03-23T19:25:19.990Z,99748.72
2019-03-23T19:27:49.378Z,99756.75
2019-03-23T19:30:18.074Z,99761.66
2019-03-23T19:32:46.401Z,99758.08
2019-03-23T19:35:14.605Z,99756.41
2019-03-23T19:37:42.826Z,99755.17
2019-03-23T19:40:11.032Z,99761.98
2019-03-23T19:42:39.258Z,99754.00
2019-03-23T19:45:07.468Z,99762.59
2019-03-23T19:47:35.711Z,99762.23
2019-03-23T19:50:06.061Z,99764.93
2019-03-23T19:52:34.283Z,99763.58
2019-03-23T19:55:02.498Z,99764.05
2019-03-23T19:57:31.052Z,99755.61
2019-03-23T19:59:59.289Z,99763.81
2019-03-23T20:02:27.485Z,99767.03
2019-03-23T20:04:55.695Z,99767.94
2019-03-23T20:07:32.755Z,99773.80
2019-03-23T20:09:54.211Z,99772.52
2019-03-23T20:12:22.434Z,99773.86
2019-03-23T20:14:50.635Z,99779.25
2019-03-23T20:17:18.872Z,99780.98
2019-03-23T20:19:47.384Z,99765.57
2019-03-23T20:22:15.606Z,99771.08
2019-03-23T20:24:43.817Z,99781.02
2019-03-23T20:27:12.320Z,99779.20
2019-03-23T20:29:40.525Z,99777.38
2019-03-23T20:32:08.745Z,99779.25
2019-03-23T20:34:37.240Z,99784.64
2019-03-23T20:37:05.445Z,99786.93
2019-03-23T20:39:33.663Z,99781.02
2019-03-23T20:42:01.879Z,99780.08
2019-03-23T20:44:30.097Z,99779.25
2019-03-23T20:46:58.618Z,99776.26
2019-03-23T20:49:26.833Z,99775.84
2019-03-23T20:51:55.710Z,99782.17
2019-03-23T20:54:23.912Z,99775.48
2019-03-23T20:56:52.119Z,99771.03
2019-03-23T20:59:20.331Z,99765.64
2019-03-23T21:01:48.902Z,99771.91
2019-03-23T21:04:17.471Z,99770.56
2019-03-23T21:06:46.063Z,99772.41
2019-03-23T21:09:14.275Z,99772.11
2019-03-23T21:11:42.816Z,99768.17
2019-03-23T21:14:19.798Z,99769.58
2019-03-23T21:16:40.963Z,99777.72
2019-03-23T21:19:09.223Z,99771.92
2019-03-23T21:21:37.433Z,99775.11
2019-03-23T21:24:05.681Z,99776.05
2019-03-23T21:26:33.894Z,99773.87
2019-03-23T21:29:03.749Z,99776.09
2019-03-23T21:31:33.244Z,99774.80
2019-03-23T21:34:01.541Z,99774.39
2019-03-23T21:36:29.749Z,99770.84
2019-03-23T21:39:02.899Z,99762.80
2019-03-23T21:41:31.172Z,99762.34
2019-03-23T21:44:08.186Z,99763.69
2019-03-23T21:46:37.721Z,99759.70
2019-03-23T21:49:06.482Z,99750.87
2019-03-23T21:51:37.550Z,99746.88
2019-03-23T21:54:05.768Z,99746.05
2019-03-23T21:56:34.409Z,99741.19
2019-03-23T21:59:02.635Z,99739.43
2019-03-23T22:01:30.834Z,99730.48
2019-03-23T22:04:00.548Z,99736.81
2019-03-23T22:06:28.745Z,99734.64
2019-03-23T22:08:58.484Z,99737.86
2019-03-23T22:11:26.696Z,99742.36
2019-03-23T22:13:54.896Z,99737.97
2019-03-23T22:16:25.137Z,99735.33
2019-03-23T22:18:56.571Z,99731.72
2019-03-23T22:21:40.728Z,99732.23
2019-03-23T22:24:10.671Z,99721.93
2019-03-23T22:26:38.912Z,99727.78
2019-03-23T22:29:07.135Z,99722.92
2019-03-23T22:31:35.344Z,99717.12
2019-03-23T22:34:06.450Z,99721.27
2019-03-23T22:36:34.997Z,99726.66
2019-03-23T22:39:04.525Z,99731.63
2019-03-23T22:41:32.796Z,99728.08
2019-03-23T22:44:09.548Z,99723.62
2019-03-23T22:46:37.781Z,99725.49
2019-03-23T22:49:06.002Z,99728.19
2019-03-23T22:51:34.471Z,99731.34
2019-03-23T22:54:08.310Z,99729.12
2019-03-23T22:56:37.112Z,99726.94
2019-03-23T22:59:05.323Z,99726.06
2019-03-23T23:01:33.524Z,99729.22
2019-03-23T23:04:01.736Z,99729.33
2019-03-23T23:06:31.406Z,99726.70
2019-03-23T23:08:59.639Z,99725.83
2019-03-23T23:11:27.839Z,99721.84
2019-03-23T23:13:56.045Z,99717.80
2019-03-23T23:16:24.341Z,99718.73
2019-03-23T23:18:52.983Z,99713.41
2019-03-23T23:21:25.419Z,99715.62
2019-03-23T23:23:53.626Z,99718.37
2019-03-23T23:26:29.384Z,99711.70
2019-03-23T23:29:13.830Z,99710.41
2019-03-23T23:31:44.146Z,99706.83
2019-03-23T23:34:14.536Z,99708.64
2019-03-23T23:36:46.575Z,99707.31
2019-03-23T23:39:14.787Z,99705.51
2019-03-23T23:41:43.007Z,99701.93
2019-03-23T23:44:11.323Z,99705.14
2019-03-23T23:46:39.853Z,99700.70
2019-03-23T23:49:08.184Z,99702.55
2019-03-23T23:51:36.385Z,99708.00
2019-03-23T23:54:04.611Z,99701.31
2019-03-23T23:56:33.201Z,99698.23
2019-03-23T23:59:01.481Z,99690.67
